sensor_id;sensor_type;location;lat;lon;timestamp;temperature;humidity
23685;DHT22;12020;51.384;6.908;2022-09-20T00:00:42;11.50;99.90
23685;DHT22;12020;51.384;6.908;2022-09-20T00:03:09;11.50;99.90
23685;DHT22;12020;51.384;6.908;2022-09-20T00:05:37;11.50;99.90
23685;DHT22;12020;51.384;6.908;2022-09-20T00:08:05;11.60;99.90
23685;DHT22;12020;51.384;6.908;2022-09-20T00:10:33;11.60;99.90
23685;DHT22;12020;51.384;6.908;2022-09-20T00:13:01;11.60;99.90
23685;DHT22;12020;51.384;6.908;2022-09-20T00:15:28;11.70;99.90
23685;DHT22;12020;51.384;6.908;2022-09-20T00:17:53;11.70;99.90
23685;DHT22;12020;51.384;6.908;2022-09-20T00:20:23;11.70;99.90
23685;DHT22;12020;51.384;6.908;2022-09-20T00:22:49;11.80;99.90
23685;DHT22;12020;51.384;6.908;2022-09-20T00:25:18;11.70;99.90
23685;DHT22;12020;51.384;6.908;2022-09-20T00:27:44;11.80;99.90
23685;DHT22;12020;51.384;6.908;2022-09-20T00:30:11;11.80;99.90
23685;DHT22;12020;51.384;6.908;2022-09-20T00:32:36;11.80;99.90
23685;DHT22;12020;51.384;6.908;2022-09-20T00:35:02;11.80;99.90
23685;DHT22;12020;51.384;6.908;2022-09-20T00:37:39;11.80;99.90
23685;DHT22;12020;51.384;6.908;2022-09-20T00:40:09;11.80;99.90
23685;DHT22;12020;51.384;6.908;2022-09-20T00:42:36;11.80;99.90
23685;DHT22;12020;51.384;6.908;2022-09-20T00:45:06;11.70;99.90
23685;DHT22;12020;51.384;6.908;2022-09-20T00:47:44;11.70;99.90
23685;DHT22;12020;51.384;6.908;2022-09-20T00:50:32;11.70;99.90
23685;DHT22;12020;51.384;6.908;2022-09-20T00:55:39;11.60;99.90
23685;DHT22;12020;51.384;6.908;2022-09-20T00:58:08;11.60;99.90
23685;DHT22;12020;51.384;6.908;2022-09-20T01:00:34;11.50;99.90
23685;DHT22;12020;51.384;6.908;2022-09-20T01:03:05;11.50;99.90
23685;DHT22;12020;51.384;6.908;2022-09-20T01:05:33;11.50;99.90
23685;DHT22;12020;51.384;6.908;2022-09-20T01:08:00;11.40;99.90
23685;DHT22;12020;51.384;6.908;2022-09-20T01:10:26;11.40;99.90
23685;DHT22;12020;51.384;6.908;2022-09-20T01:12:52;11.40;99.90
23685;DHT22;12020;51.384;6.908;2022-09-20T01:15:19;11.40;99.90
23685;DHT22;12020;51.384;6.908;2022-09-20T01:17:51;11.40;99.90
23685;DHT22;12020;51.384;6.908;2022-09-20T01:20:33;11.30;99.90
23685;DHT22;12020;51.384;6.908;2022-09-20T01:23:39;11.30;99.90
23685;DHT22;12020;51.384;6.908;2022-09-20T01:28:21;11.30;99.90
23685;DHT22;12020;51.384;6.908;2022-09-20T01:31:07;11.30;99.90
23685;DHT22;12020;51.384;6.908;2022-09-20T01:37:07;11.30;99.90
23685;DHT22;12020;51.384;6.908;2022-09-20T01:42:37;11.30;99.90
23685;DHT22;12020;51.384;6.908;2022-09-20T01:45:29;11.30;99.90
23685;DHT22;12020;51.384;6.908;2022-09-20T01:48:26;11.20;99.90
23685;DHT22;12020;51.384;6.908;2022-09-20T02:13:30;11.10;99.90
23685;DHT22;12020;51.384;6.908;2022-09-20T02:19:19;11.10;99.90
23685;DHT22;12020;51.384;6.908;2022-09-20T02:30:37;11.00;99.90
23685;DHT22;12020;51.384;6.908;2022-09-20T02:38:33;11.10;99.90
23685;DHT22;12020;51.384;6.908;2022-09-20T02:43:55;11.10;99.90
23685;DHT22;12020;51.384;6.908;2022-09-20T02:46:58;11.00;99.90
23685;DHT22;12020;51.384;6.908;2022-09-20T02:50:10;11.00;99.90
23685;DHT22;12020;51.384;6.908;2022-09-20T02:55:17;11.00;99.90
23685;DHT22;12020;51.384;6.908;2022-09-20T03:03:44;11.00;99.90
23685;DHT22;12020;51.384;6.908;2022-09-20T03:09:26;11.00;99.90
23685;DHT22;12020;51.384;6.908;2022-09-20T03:12:09;11.00;99.90
23685;DHT22;12020;51.384;6.908;2022-09-20T03:15:32;11.00;99.90
23685;DHT22;12020;51.384;6.908;2022-09-20T03:17:51;11.00;99.90
23685;DHT22;12020;51.384;6.908;2022-09-20T03:20:28;11.00;99.90
23685;DHT22;12020;51.384;6.908;2022-09-20T03:33:59;11.10;99.90
23685;DHT22;12020;51.384;6.908;2022-09-20T03:36:55;11.00;99.90
23685;DHT22;12020;51.384;6.908;2022-09-20T03:42:21;11.00;99.90
23685;DHT22;12020;51.384;6.908;2022-09-20T03:45:22;11.10;99.90
23685;DHT22;12020;51.384;6.908;2022-09-20T03:56:32;11.10;99.90
23685;DHT22;12020;51.384;6.908;2022-09-20T04:00:12;11.10;99.90
23685;DHT22;12020;51.384;6.908;2022-09-20T04:04:53;11.10;99.90
23685;DHT22;12020;51.384;6.908;2022-09-20T04:19:09;11.20;99.90
23685;DHT22;12020;51.384;6.908;2022-09-20T04:21:44;11.20;99.90
23685;DHT22;12020;51.384;6.908;2022-09-20T04:27:39;11.20;99.90
23685;DHT22;12020;51.384;6.908;2022-09-20T04:30:16;11.20;99.90
23685;DHT22;12020;51.384;6.908;2022-09-20T04:32:59;11.20;99.90
23685;DHT22;12020;51.384;6.908;2022-09-20T04:38:25;11.20;99.90
23685;DHT22;12020;51.384;6.908;2022-09-20T04:43:55;11.20;99.90
23685;DHT22;12020;51.384;6.908;2022-09-20T04:57:51;11.20;99.90
23685;DHT22;12020;51.384;6.908;2022-09-20T05:00:22;11.30;99.90
23685;DHT22;12020;51.384;6.908;2022-09-20T05:03:14;11.20;99.90
23685;DHT22;12020;51.384;6.908;2022-09-20T05:19:34;11.30;99.90
23685;DHT22;12020;51.384;6.908;2022-09-20T05:27:48;11.40;99.90
23685;DHT22;12020;51.384;6.908;2022-09-20T05:58:02;11.70;99.90
23685;DHT22;12020;51.384;6.908;2022-09-20T06:00:43;11.70;99.90
23685;DHT22;12020;51.384;6.908;2022-09-20T06:11:39;11.90;99.90
23685;DHT22;12020;51.384;6.908;2022-09-20T06:17:22;11.90;99.90
23685;DHT22;12020;51.384;6.908;2022-09-20T06:22:35;12.00;99.90
23685;DHT22;12020;51.384;6.908;2022-09-20T06:27:38;12.10;99.90
23685;DHT22;12020;51.384;6.908;2022-09-20T06:30:12;12.20;99.90
23685;DHT22;12020;51.384;6.908;2022-09-20T06:35:21;12.30;99.90
23685;DHT22;12020;51.384;6.908;2022-09-20T06:38:11;12.30;99.90
23685;DHT22;12020;51.384;6.908;2022-09-20T06:41:16;12.40;99.90
23685;DHT22;12020;51.384;6.908;2022-09-20T06:43:55;12.40;99.90
23685;DHT22;12020;51.384;6.908;2022-09-20T06:46:25;12.40;99.90
23685;DHT22;12020;51.384;6.908;2022-09-20T06:48:51;12.40;99.90
23685;DHT22;12020;51.384;6.908;2022-09-20T06:51:17;12.40;99.90
23685;DHT22;12020;51.384;6.908;2022-09-20T06:53:44;12.50;99.90
23685;DHT22;12020;51.384;6.908;2022-09-20T06:56:17;12.50;99.90
23685;DHT22;12020;51.384;6.908;2022-09-20T06:58:44;12.50;99.90
23685;DHT22;12020;51.384;6.908;2022-09-20T07:01:10;12.60;99.90
23685;DHT22;12020;51.384;6.908;2022-09-20T07:03:38;12.60;99.90
23685;DHT22;12020;51.384;6.908;2022-09-20T07:06:05;12.60;99.90
23685;DHT22;12020;51.384;6.908;2022-09-20T07:08:31;12.60;99.90
23685;DHT22;12020;51.384;6.908;2022-09-20T07:11:01;12.60;99.90
23685;DHT22;12020;51.384;6.908;2022-09-20T07:13:26;12.70;99.90
23685;DHT22;12020;51.384;6.908;2022-09-20T07:15:59;12.70;99.90
23685;DHT22;12020;51.384;6.908;2022-09-20T07:18:26;12.80;99.90
23685;DHT22;12020;51.384;6.908;2022-09-20T07:20:51;12.90;99.90
23685;DHT22;12020;51.384;6.908;2022-09-20T07:23:18;12.90;99.90
23685;DHT22;12020;51.384;6.908;2022-09-20T07:25:44;13.00;99.90
23685;DHT22;12020;51.384;6.908;2022-09-20T07:28:09;13.00;99.90
23685;DHT22;12020;51.384;6.908;2022-09-20T07:30:36;13.10;99.90
23685;DHT22;12020;51.384;6.908;2022-09-20T07:33:03;13.10;99.90
23685;DHT22;12020;51.384;6.908;2022-09-20T07:35:29;13.20;99.90
23685;DHT22;12020;51.384;6.908;2022-09-20T07:37:56;13.20;99.90
23685;DHT22;12020;51.384;6.908;2022-09-20T07:40:22;13.20;99.90
23685;DHT22;12020;51.384;6.908;2022-09-20T07:42:48;13.30;99.90
23685;DHT22;12020;51.384;6.908;2022-09-20T07:45:13;13.30;99.90
23685;DHT22;12020;51.384;6.908;2022-09-20T07:47:39;13.30;99.90
23685;DHT22;12020;51.384;6.908;2022-09-20T07:50:07;13.40;99.90
23685;DHT22;12020;51.384;6.908;2022-09-20T07:52:35;13.40;99.90
23685;DHT22;12020;51.384;6.908;2022-09-20T07:55:01;13.50;99.90
23685;DHT22;12020;51.384;6.908;2022-09-20T07:57:27;13.50;99.90
23685;DHT22;12020;51.384;6.908;2022-09-20T07:59:52;13.60;99.90
23685;DHT22;12020;51.384;6.908;2022-09-20T08:02:19;13.60;99.90
23685;DHT22;12020;51.384;6.908;2022-09-20T08:04:44;13.60;99.90
23685;DHT22;12020;51.384;6.908;2022-09-20T08:07:14;13.60;99.90
23685;DHT22;12020;51.384;6.908;2022-09-20T08:09:40;13.70;99.90
23685;DHT22;12020;51.384;6.908;2022-09-20T08:12:06;13.70;99.90
23685;DHT22;12020;51.384;6.908;2022-09-20T08:14:33;13.80;99.90
23685;DHT22;12020;51.384;6.908;2022-09-20T08:16:58;13.80;99.90
23685;DHT22;12020;51.384;6.908;2022-09-20T08:19:24;13.90;99.90
23685;DHT22;12020;51.384;6.908;2022-09-20T08:22:13;13.90;99.90
23685;DHT22;12020;51.384;6.908;2022-09-20T08:24:40;14.00;99.90
23685;DHT22;12020;51.384;6.908;2022-09-20T08:27:06;14.10;99.90
23685;DHT22;12020;51.384;6.908;2022-09-20T08:29:33;14.10;99.90
23685;DHT22;12020;51.384;6.908;2022-09-20T08:32:02;14.30;99.90
23685;DHT22;12020;51.384;6.908;2022-09-20T08:34:29;14.50;99.90
23685;DHT22;12020;51.384;6.908;2022-09-20T08:36:58;14.60;99.90
23685;DHT22;12020;51.384;6.908;2022-09-20T08:39:24;14.60;99.90
23685;DHT22;12020;51.384;6.908;2022-09-20T08:42:09;14.60;99.90
23685;DHT22;12020;51.384;6.908;2022-09-20T08:44:50;14.60;99.90
23685;DHT22;12020;51.384;6.908;2022-09-20T08:47:37;14.60;99.90
23685;DHT22;12020;51.384;6.908;2022-09-20T08:50:15;14.60;99.90
23685;DHT22;12020;51.384;6.908;2022-09-20T08:52:47;14.60;99.90
23685;DHT22;12020;51.384;6.908;2022-09-20T08:55:26;14.80;99.90
23685;DHT22;12020;51.384;6.908;2022-09-20T08:57:57;15.00;99.90
23685;DHT22;12020;51.384;6.908;2022-09-20T09:00:27;15.10;99.90
23685;DHT22;12020;51.384;6.908;2022-09-20T09:03:50;15.00;99.90
23685;DHT22;12020;51.384;6.908;2022-09-20T09:06:19;15.00;99.90
23685;DHT22;12020;51.384;6.908;2022-09-20T09:09:06;15.10;99.90
23685;DHT22;12020;51.384;6.908;2022-09-20T09:14:36;15.00;99.90
23685;DHT22;12020;51.384;6.908;2022-09-20T09:17:23;15.00;99.90
23685;DHT22;12020;51.384;6.908;2022-09-20T09:22:40;15.10;99.90
23685;DHT22;12020;51.384;6.908;2022-09-20T09:30:40;14.90;99.90
23685;DHT22;12020;51.384;6.908;2022-09-20T09:36:20;15.10;99.90
23685;DHT22;12020;51.384;6.908;2022-09-20T09:38:48;15.20;99.90
23685;DHT22;12020;51.384;6.908;2022-09-20T09:41:30;15.20;99.90
23685;DHT22;12020;51.384;6.908;2022-09-20T09:44:26;15.20;99.90
23685;DHT22;12020;51.384;6.908;2022-09-20T09:46:56;15.20;99.90
23685;DHT22;12020;51.384;6.908;2022-09-20T09:49:30;15.30;99.90
23685;DHT22;12020;51.384;6.908;2022-09-20T09:52:13;15.30;99.90
23685;DHT22;12020;51.384;6.908;2022-09-20T09:54:48;15.40;99.90
23685;DHT22;12020;51.384;6.908;2022-09-20T10:00:20;15.50;99.90
23685;DHT22;12020;51.384;6.908;2022-09-20T10:16:54;15.20;99.90
23685;DHT22;12020;51.384;6.908;2022-09-20T10:28:33;15.00;99.90
23685;DHT22;12020;51.384;6.908;2022-09-20T10:37:00;14.80;99.90
23685;DHT22;12020;51.384;6.908;2022-09-20T10:39:38;14.70;99.90
23685;DHT22;12020;51.384;6.908;2022-09-20T11:27:37;15.30;99.90
23685;DHT22;12020;51.384;6.908;2022-09-20T11:30:21;15.30;99.90
23685;DHT22;12020;51.384;6.908;2022-09-20T11:32:56;15.30;99.90
23685;DHT22;12020;51.384;6.908;2022-09-20T11:35:45;15.30;99.90
23685;DHT22;12020;51.384;6.908;2022-09-20T11:38:48;15.40;99.90
23685;DHT22;12020;51.384;6.908;2022-09-20T11:41:29;15.40;99.90
23685;DHT22;12020;51.384;6.908;2022-09-20T11:44:03;15.50;99.90
23685;DHT22;12020;51.384;6.908;2022-09-20T11:47:02;15.50;99.90
23685;DHT22;12020;51.384;6.908;2022-09-20T11:58:24;15.60;99.90
23685;DHT22;12020;51.384;6.908;2022-09-20T12:00:54;15.60;99.90
23685;DHT22;12020;51.384;6.908;2022-09-20T12:03:52;15.70;99.90
23685;DHT22;12020;51.384;6.908;2022-09-20T12:28:52;16.40;99.90
23685;DHT22;12020;51.384;6.908;2022-09-20T12:36:34;16.60;99.90
23685;DHT22;12020;51.384;6.908;2022-09-20T12:44:35;16.70;99.90
23685;DHT22;12020;51.384;6.908;2022-09-20T12:52:50;16.70;99.90
23685;DHT22;12020;51.384;6.908;2022-09-20T12:58:20;16.70;99.90
23685;DHT22;12020;51.384;6.908;2022-09-20T13:03:36;16.60;99.90
23685;DHT22;12020;51.384;6.908;2022-09-20T13:11:53;16.70;99.90
23685;DHT22;12020;51.384;6.908;2022-09-20T13:14:27;16.60;99.90
23685;DHT22;12020;51.384;6.908;2022-09-20T13:16:56;16.70;99.90
23685;DHT22;12020;51.384;6.908;2022-09-20T13:19:31;16.60;99.90
23685;DHT22;12020;51.384;6.908;2022-09-20T13:22:28;16.60;99.90
23685;DHT22;12020;51.384;6.908;2022-09-20T13:24:57;16.70;99.90
23685;DHT22;12020;51.384;6.908;2022-09-20T13:27:39;16.70;99.90
23685;DHT22;12020;51.384;6.908;2022-09-20T13:30:23;16.70;99.90
23685;DHT22;12020;51.384;6.908;2022-09-20T13:32:50;16.70;99.90
23685;DHT22;12020;51.384;6.908;2022-09-20T13:35:25;16.70;99.90
23685;DHT22;12020;51.384;6.908;2022-09-20T13:38:03;16.70;99.90
23685;DHT22;12020;51.384;6.908;2022-09-20T13:40:38;16.60;99.90
23685;DHT22;12020;51.384;6.908;2022-09-20T13:43:39;16.70;99.90
23685;DHT22;12020;51.384;6.908;2022-09-20T13:46:13;16.70;99.90
23685;DHT22;12020;51.384;6.908;2022-09-20T13:48:45;16.80;99.90
23685;DHT22;12020;51.384;6.908;2022-09-20T13:51:23;16.90;99.90
23685;DHT22;12020;51.384;6.908;2022-09-20T14:00:23;16.90;99.90
23685;DHT22;12020;51.384;6.908;2022-09-20T14:03:19;16.90;99.90
23685;DHT22;12020;51.384;6.908;2022-09-20T14:06:31;16.80;99.90
23685;DHT22;12020;51.384;6.908;2022-09-20T15:13:26;15.40;99.90
23685;DHT22;12020;51.384;6.908;2022-09-20T15:15:53;15.40;99.90
23685;DHT22;12020;51.384;6.908;2022-09-20T15:19:14;15.40;99.90
23685;DHT22;12020;51.384;6.908;2022-09-20T15:34:53;15.50;99.90
23685;DHT22;12020;51.384;6.908;2022-09-20T15:37:27;15.50;99.90
23685;DHT22;12020;51.384;6.908;2022-09-20T15:42:40;15.60;99.90
23685;DHT22;12020;51.384;6.908;2022-09-20T15:45:09;15.60;99.90
23685;DHT22;12020;51.384;6.908;2022-09-20T15:50:22;15.50;99.90
23685;DHT22;12020;51.384;6.908;2022-09-20T15:52:49;15.50;99.90
23685;DHT22;12020;51.384;6.908;2022-09-20T15:55:16;15.50;99.90
23685;DHT22;12020;51.384;6.908;2022-09-20T15:57:43;15.50;99.90
23685;DHT22;12020;51.384;6.908;2022-09-20T16:00:09;15.60;99.90
23685;DHT22;12020;51.384;6.908;2022-09-20T16:08:35;15.60;99.90
23685;DHT22;12020;51.384;6.908;2022-09-20T16:11:00;15.60;99.90
23685;DHT22;12020;51.384;6.908;2022-09-20T16:29:41;15.60;99.90
23685;DHT22;12020;51.384;6.908;2022-09-20T16:32:09;15.60;99.90
23685;DHT22;12020;51.384;6.908;2022-09-20T16:37:12;15.60;99.90
23685;DHT22;12020;51.384;6.908;2022-09-20T16:45:18;15.60;99.90
23685;DHT22;12020;51.384;6.908;2022-09-20T16:47:44;15.60;99.90
23685;DHT22;12020;51.384;6.908;2022-09-20T16:50:09;15.50;99.90
23685;DHT22;12020;51.384;6.908;2022-09-20T16:52:37;15.50;99.90
23685;DHT22;12020;51.384;6.908;2022-09-20T16:55:03;15.40;99.90
23685;DHT22;12020;51.384;6.908;2022-09-20T16:57:29;15.40;99.90
23685;DHT22;12020;51.384;6.908;2022-09-20T16:59:56;15.50;99.90
23685;DHT22;12020;51.384;6.908;2022-09-20T17:02:24;15.70;99.90
23685;DHT22;12020;51.384;6.908;2022-09-20T17:04:51;15.80;99.90
23685;DHT22;12020;51.384;6.908;2022-09-20T17:07:32;15.90;99.90
23685;DHT22;12020;51.384;6.908;2022-09-20T17:10:01;15.80;99.90
23685;DHT22;12020;51.384;6.908;2022-09-20T17:12:52;15.80;99.90
23685;DHT22;12020;51.384;6.908;2022-09-20T17:18:36;15.50;99.90
23685;DHT22;12020;51.384;6.908;2022-09-20T17:21:07;15.40;99.90
23685;DHT22;12020;51.384;6.908;2022-09-20T17:23:44;15.20;99.90
23685;DHT22;12020;51.384;6.908;2022-09-20T17:48:26;14.40;99.90
23685;DHT22;12020;51.384;6.908;2022-09-20T18:02:00;14.10;99.90
23685;DHT22;12020;51.384;6.908;2022-09-20T18:04:33;14.00;99.90
23685;DHT22;12020;51.384;6.908;2022-09-20T18:07:01;14.00;99.90
23685;DHT22;12020;51.384;6.908;2022-09-20T18:09:49;14.00;99.90
23685;DHT22;12020;51.384;6.908;2022-09-20T18:13:22;13.90;99.90
23685;DHT22;12020;51.384;6.908;2022-09-20T19:29:34;12.50;99.90
23685;DHT22;12020;51.384;6.908;2022-09-20T19:32:04;12.40;99.90
23685;DHT22;12020;51.384;6.908;2022-09-20T19:34:31;12.40;99.90
23685;DHT22;12020;51.384;6.908;2022-09-20T19:48:51;12.30;99.90
23685;DHT22;12020;51.384;6.908;2022-09-20T19:51:45;12.30;99.90
23685;DHT22;12020;51.384;6.908;2022-09-20T19:54:29;12.30;99.90
23685;DHT22;12020;51.384;6.908;2022-09-20T19:58:04;12.30;99.90
23685;DHT22;12020;51.384;6.908;2022-09-20T20:00:30;12.30;99.90
23685;DHT22;12020;51.384;6.908;2022-09-20T20:03:01;12.30;99.90
23685;DHT22;12020;51.384;6.908;2022-09-20T20:05:28;12.30;99.90
23685;DHT22;12020;51.384;6.908;2022-09-20T20:10:33;12.40;99.90
23685;DHT22;12020;51.384;6.908;2022-09-20T20:13:07;12.30;99.90
23685;DHT22;12020;51.384;6.908;2022-09-20T20:16:05;12.30;99.90
23685;DHT22;12020;51.384;6.908;2022-09-20T20:21:32;12.30;99.90
23685;DHT22;12020;51.384;6.908;2022-09-20T20:26:50;12.30;99.90
23685;DHT22;12020;51.384;6.908;2022-09-20T20:29:15;12.20;99.90
23685;DHT22;12020;51.384;6.908;2022-09-20T20:31:41;12.20;99.90
23685;DHT22;12020;51.384;6.908;2022-09-20T20:34:07;12.10;99.90
23685;DHT22;12020;51.384;6.908;2022-09-20T20:36:33;12.10;99.90
23685;DHT22;12020;51.384;6.908;2022-09-20T20:38:59;12.10;99.90
23685;DHT22;12020;51.384;6.908;2022-09-20T20:41:27;12.00;99.90
23685;DHT22;12020;51.384;6.908;2022-09-20T20:43:54;12.00;99.90
23685;DHT22;12020;51.384;6.908;2022-09-20T20:46:21;11.90;99.90
23685;DHT22;12020;51.384;6.908;2022-09-20T20:48:46;11.90;99.90
23685;DHT22;12020;51.384;6.908;2022-09-20T20:51:14;11.90;99.90
23685;DHT22;12020;51.384;6.908;2022-09-20T20:53:45;11.90;99.90
23685;DHT22;12020;51.384;6.908;2022-09-20T20:56:19;11.90;99.90
23685;DHT22;12020;51.384;6.908;2022-09-20T20:58:46;11.80;99.90
23685;DHT22;12020;51.384;6.908;2022-09-20T21:01:14;11.80;99.90
23685;DHT22;12020;51.384;6.908;2022-09-20T21:03:42;11.80;99.90
23685;DHT22;12020;51.384;6.908;2022-09-20T21:06:09;11.70;99.90
23685;DHT22;12020;51.384;6.908;2022-09-20T21:08:40;11.70;99.90
23685;DHT22;12020;51.384;6.908;2022-09-20T21:11:26;11.70;99.90
23685;DHT22;12020;51.384;6.908;2022-09-20T21:13:53;11.70;99.90
23685;DHT22;12020;51.384;6.908;2022-09-20T21:16:32;11.70;99.90
23685;DHT22;12020;51.384;6.908;2022-09-20T21:19:00;11.70;99.90
23685;DHT22;12020;51.384;6.908;2022-09-20T21:21:27;11.60;99.90
23685;DHT22;12020;51.384;6.908;2022-09-20T21:23:59;11.60;99.90
23685;DHT22;12020;51.384;6.908;2022-09-20T21:26:26;11.50;99.90
23685;DHT22;12020;51.384;6.908;2022-09-20T21:28:57;11.50;99.90
23685;DHT22;12020;51.384;6.908;2022-09-20T21:31:31;11.50;99.90
23685;DHT22;12020;51.384;6.908;2022-09-20T21:33:57;11.50;99.90
23685;DHT22;12020;51.384;6.908;2022-09-20T21:36:28;11.40;99.90
23685;DHT22;12020;51.384;6.908;2022-09-20T21:38:54;11.30;99.90
23685;DHT22;12020;51.384;6.908;2022-09-20T21:41:29;11.30;99.90
23685;DHT22;12020;51.384;6.908;2022-09-20T21:43:57;11.20;99.90
23685;DHT22;12020;51.384;6.908;2022-09-20T21:46:32;11.20;99.90
23685;DHT22;12020;51.384;6.908;2022-09-20T21:49:00;11.10;99.90
23685;DHT22;12020;51.384;6.908;2022-09-20T21:51:28;11.10;99.90
23685;DHT22;12020;51.384;6.908;2022-09-20T21:53:56;11.10;99.90
23685;DHT22;12020;51.384;6.908;2022-09-20T21:56:23;11.00;99.90
23685;DHT22;12020;51.384;6.908;2022-09-20T21:58:52;11.00;99.90
23685;DHT22;12020;51.384;6.908;2022-09-20T22:01:20;11.00;99.90
23685;DHT22;12020;51.384;6.908;2022-09-20T22:03:48;11.00;99.90
23685;DHT22;12020;51.384;6.908;2022-09-20T22:06:18;10.90;99.90
23685;DHT22;12020;51.384;6.908;2022-09-20T22:08:55;10.90;99.90
23685;DHT22;12020;51.384;6.908;2022-09-20T22:11:24;10.90;99.90
23685;DHT22;12020;51.384;6.908;2022-09-20T22:13:51;10.90;99.90
23685;DHT22;12020;51.384;6.908;2022-09-20T22:16:19;10.90;99.90
23685;DHT22;12020;51.384;6.908;2022-09-20T22:18:45;10.80;99.90
23685;DHT22;12020;51.384;6.908;2022-09-20T22:21:15;10.80;99.90
23685;DHT22;12020;51.384;6.908;2022-09-20T22:23:41;10.80;99.90
23685;DHT22;12020;51.384;6.908;2022-09-20T22:26:12;10.80;99.90
23685;DHT22;12020;51.384;6.908;2022-09-20T22:28:39;10.70;99.90
23685;DHT22;12020;51.384;6.908;2022-09-20T22:31:13;10.60;99.90
23685;DHT22;12020;51.384;6.908;2022-09-20T22:33:41;10.60;99.90
23685;DHT22;12020;51.384;6.908;2022-09-20T22:36:08;10.60;99.90
23685;DHT22;12020;51.384;6.908;2022-09-20T22:38:34;10.60;99.90
23685;DHT22;12020;51.384;6.908;2022-09-20T22:41:00;10.60;99.90
23685;DHT22;12020;51.384;6.908;2022-09-20T22:43:26;10.60;99.90
23685;DHT22;12020;51.384;6.908;2022-09-20T22:46:03;10.50;99.90
23685;DHT22;12020;51.384;6.908;2022-09-20T22:48:33;10.50;99.90
23685;DHT22;12020;51.384;6.908;2022-09-20T22:51:03;10.50;99.90
23685;DHT22;12020;51.384;6.908;2022-09-20T22:53:30;10.50;99.90
23685;DHT22;12020;51.384;6.908;2022-09-20T22:56:12;10.50;99.90
23685;DHT22;12020;51.384;6.908;2022-09-20T22:58:43;10.50;99.90
23685;DHT22;12020;51.384;6.908;2022-09-20T23:01:13;10.50;99.90
23685;DHT22;12020;51.384;6.908;2022-09-20T23:03:40;10.40;99.90
23685;DHT22;12020;51.384;6.908;2022-09-20T23:06:17;10.40;99.90
23685;DHT22;12020;51.384;6.908;2022-09-20T23:08:46;10.40;99.90
23685;DHT22;12020;51.384;6.908;2022-09-20T23:11:12;10.30;99.90
23685;DHT22;12020;51.384;6.908;2022-09-20T23:13:40;10.30;99.90
23685;DHT22;12020;51.384;6.908;2022-09-20T23:16:09;10.30;99.90
23685;DHT22;12020;51.384;6.908;2022-09-20T23:18:34;10.30;99.90
23685;DHT22;12020;51.384;6.908;2022-09-20T23:21:01;10.30;99.90
23685;DHT22;12020;51.384;6.908;2022-09-20T23:23:27;10.20;99.90
23685;DHT22;12020;51.384;6.908;2022-09-20T23:26:06;10.20;99.90
23685;DHT22;12020;51.384;6.908;2022-09-20T23:28:39;10.20;99.90
23685;DHT22;12020;51.384;6.908;2022-09-20T23:31:09;10.20;99.90
23685;DHT22;12020;51.384;6.908;2022-09-20T23:33:36;10.20;99.90
23685;DHT22;12020;51.384;6.908;2022-09-20T23:36:09;10.20;99.90
23685;DHT22;12020;51.384;6.908;2022-09-20T23:38:35;10.10;99.90
23685;DHT22;12020;51.384;6.908;2022-09-20T23:41:09;10.10;99.90
23685;DHT22;12020;51.384;6.908;2022-09-20T23:43:36;10.10;99.90
23685;DHT22;12020;51.384;6.908;2022-09-20T23:46:02;10.00;99.90
23685;DHT22;12020;51.384;6.908;2022-09-20T23:48:30;10.00;99.90
23685;DHT22;12020;51.384;6.908;2022-09-20T23:50:56;10.10;99.90
23685;DHT22;12020;51.384;6.908;2022-09-20T23:53:22;10.10;99.90
23685;DHT22;12020;51.384;6.908;2022-09-20T23:55:48;10.10;99.90
23685;DHT22;12020;51.384;6.908;2022-09-20T23:58:14;10.10;99.90
